Time;durP1;ratioP1;P1;durP2;ratioP2;P2;SDS_P1;SDS_P2;PMS_P1;PMS_P2;Temp;Humidity;BMP_temperature;BMP_pressure;BME280_temperature;BME280_humidity;BME280_pressure;Samples;Min_cycle;Max_cycle;Signal;HPM_P1;HPM_P2
2022/06/27 00:02:19;;;;;;;1.45;1.17;;;19.20;67.30;;;;;;5045074;28;20375;-69
2022/06/27 00:04:44;;;;;;;2.50;1.40;;;19.30;67.10;;;;;;5049367;28;20396;-69
2022/06/27 00:07:11;;;;;;;3.40;1.50;;;19.30;67.00;;;;;;5040317;28;20036;-70
2022/06/27 00:09:38;;;;;;;2.10;1.25;;;19.40;67.00;;;;;;5048300;28;20387;-70
2022/06/27 00:12:04;;;;;;;4.00;1.55;;;19.40;66.80;;;;;;5045602;28;20398;-69
2022/06/27 00:14:29;;;;;;;2.13;1.30;;;19.40;66.80;;;;;;5047822;28;20029;-69
2022/06/27 00:16:55;;;;;;;2.95;1.30;;;19.40;66.80;;;;;;5046557;28;20395;-68
2022/06/27 00:19:20;;;;;;;3.00;1.40;;;19.40;66.70;;;;;;5047310;28;20110;-68
2022/06/27 00:21:46;;;;;;;2.67;1.30;;;19.40;66.60;;;;;;5037471;28;20091;-69
2022/06/27 00:24:12;;;;;;;2.05;1.60;;;19.40;66.50;;;;;;5049145;28;20032;-69
2022/06/27 00:26:37;;;;;;;3.13;1.42;;;19.40;66.30;;;;;;5047583;28;20529;-69
2022/06/27 00:29:04;;;;;;;1.73;1.25;;;19.40;66.30;;;;;;5048879;28;20025;-69
2022/06/27 00:31:29;;;;;;;1.83;1.42;;;19.40;66.20;;;;;;5039557;28;20508;-67
2022/06/27 00:33:55;;;;;;;2.08;1.38;;;19.50;66.20;;;;;;5048685;28;20094;-70
2022/06/27 00:36:21;;;;;;;3.20;1.40;;;19.50;66.10;;;;;;5047015;28;20453;-70
2022/06/27 00:38:46;;;;;;;2.47;1.20;;;19.50;65.90;;;;;;5049270;28;20059;-69
2022/06/27 00:41:12;;;;;;;1.73;1.23;;;19.60;65.80;;;;;;5046147;28;20025;-68
2022/06/27 00:43:37;;;;;;;2.05;1.38;;;19.60;65.60;;;;;;5049982;28;20056;-69
2022/06/27 00:46:03;;;;;;;2.10;1.30;;;19.60;65.60;;;;;;5052702;28;20618;-70
2022/06/27 00:48:28;;;;;;;2.17;1.30;;;19.60;65.50;;;;;;5048954;28;20056;-69
2022/06/27 00:50:56;;;;;;;1.65;1.20;;;19.60;65.40;;;;;;5047033;28;20076;-69
2022/06/27 00:53:22;;;;;;;3.05;1.30;;;19.50;65.20;;;;;;5046126;28;20017;-69
2022/06/27 00:55:48;;;;;;;2.58;1.30;;;19.50;65.20;;;;;;5049081;28;20097;-70
2022/06/27 00:58:14;;;;;;;1.80;1.58;;;19.50;65.30;;;;;;5049528;28;20108;-70
2022/06/27 01:00:39;;;;;;;2.53;1.10;;;19.50;65.30;;;;;;5048515;28;20456;-70
2022/06/27 01:03:05;;;;;;;1.90;1.20;;;19.50;65.10;;;;;;5050947;28;20021;-69
2022/06/27 01:05:31;;;;;;;1.60;1.20;;;19.60;65.00;;;;;;5052897;28;20025;-69
2022/06/27 01:07:56;;;;;;;1.65;1.20;;;19.60;64.80;;;;;;5048384;28;20032;-69
2022/06/27 01:10:22;;;;;;;1.90;1.20;;;19.60;65.40;;;;;;5052508;28;20037;-69
2022/06/27 01:12:49;;;;;;;2.10;1.10;;;19.60;64.80;;;;;;5051534;28;20027;-69
2022/06/27 01:15:14;;;;;;;1.95;1.38;;;19.70;64.70;;;;;;5052341;28;20036;-69
2022/06/27 01:17:40;;;;;;;1.60;1.30;;;19.70;64.70;;;;;;5050097;28;20033;-69
2022/06/27 01:20:07;;;;;;;1.33;1.10;;;19.70;64.70;;;;;;5050765;28;20049;-69
2022/06/27 01:22:32;;;;;;;1.55;1.30;;;19.70;64.90;;;;;;5051206;28;20067;-70
2022/06/27 01:24:58;;;;;;;1.60;1.30;;;19.60;65.10;;;;;;5048877;28;20063;-70
2022/06/27 01:27:24;;;;;;;3.05;1.40;;;19.60;65.40;;;;;;5050360;28;20021;-70
2022/06/27 01:29:49;;;;;;;2.25;1.60;;;19.60;65.70;;;;;;5042544;28;20029;-69
2022/06/27 01:32:15;;;;;;;2.47;1.42;;;19.50;65.80;;;;;;5048187;28;20474;-70
2022/06/27 01:34:40;;;;;;;3.35;1.45;;;19.40;66.10;;;;;;5040128;28;20090;-69
2022/06/27 01:37:06;;;;;;;3.50;1.90;;;19.40;66.20;;;;;;5051654;28;20059;-68
2022/06/27 01:39:32;;;;;;;1.73;1.50;;;19.40;66.50;;;;;;5043160;28;20029;-67
2022/06/27 01:42:01;;;;;;;2.20;1.80;;;19.30;66.60;;;;;;5052598;28;20032;-68
2022/06/27 01:44:29;;;;;;;1.90;1.60;;;19.30;66.70;;;;;;5047989;28;20123;-68
2022/06/27 01:46:55;;;;;;;4.13;1.70;;;19.30;66.80;;;;;;5050858;28;20479;-69
2022/06/27 01:49:21;;;;;;;2.15;1.70;;;19.30;66.80;;;;;;5041924;28;20392;-69
2022/06/27 01:51:49;;;;;;;2.85;1.67;;;19.30;66.90;;;;;;5050766;28;20023;-70
2022/06/27 01:54:16;;;;;;;3.88;1.90;;;19.30;67.00;;;;;;5047409;28;20109;-68
2022/06/27 01:56:44;;;;;;;2.00;1.50;;;19.20;67.20;;;;;;5049886;28;20044;-68
2022/06/27 01:59:11;;;;;;;5.35;2.30;;;19.20;67.20;;;;;;5043832;28;20407;-70
2022/06/27 02:01:39;;;;;;;2.70;2.20;;;19.10;67.50;;;;;;5050925;28;20029;-68
2022/06/27 02:04:05;;;;;;;2.30;1.85;;;19.10;67.80;;;;;;5048954;28;20112;-69
2022/06/27 02:06:31;;;;;;;1.98;1.75;;;19.10;67.80;;;;;;5049472;28;20111;-69
2022/06/27 02:08:58;;;;;;;3.90;2.00;;;19.20;67.80;;;;;;5034712;28;20057;-70
2022/06/27 02:11:25;;;;;;;3.30;2.20;;;19.10;67.80;;;;;;5051082;28;20053;-70
2022/06/27 02:13:50;;;;;;;2.17;1.90;;;19.10;67.80;;;;;;5050117;28;20029;-70
2022/06/27 02:16:18;;;;;;;2.90;1.75;;;19.20;67.70;;;;;;5050953;28;20536;-69
2022/06/27 02:18:45;;;;;;;3.08;1.90;;;19.20;67.60;;;;;;5040873;28;20037;-69
2022/06/27 02:21:12;;;;;;;2.83;2.17;;;19.20;67.60;;;;;;5044538;28;20399;-70
2022/06/27 02:23:38;;;;;;;2.45;2.03;;;19.20;67.80;;;;;;5051645;28;20100;-70
2022/06/27 02:26:07;;;;;;;2.28;1.88;;;19.20;67.80;;;;;;5043253;28;20037;-68
2022/06/27 02:28:34;;;;;;;4.18;2.47;;;19.20;67.80;;;;;;5042487;28;20022;-70
2022/06/27 02:31:00;;;;;;;2.78;2.20;;;19.10;67.90;;;;;;5044180;28;20025;-69
2022/06/27 02:33:41;;;;;;;3.60;2.40;;;19.10;68.20;;;;;;5049955;28;20864;-69
2022/06/27 02:36:10;;;;;;;4.18;2.65;;;19.00;68.50;;;;;;5048532;28;20021;-68
2022/06/27 02:38:37;;;;;;;3.05;2.25;;;19.00;68.90;;;;;;5042831;28;20029;-67
2022/06/27 02:41:05;;;;;;;4.15;2.38;;;19.00;69.10;;;;;;5048201;28;20025;-69
2022/06/27 02:43:34;;;;;;;3.40;2.22;;;18.90;69.10;;;;;;5049366;28;20037;-71
2022/06/27 02:46:01;;;;;;;2.55;2.17;;;18.90;69.20;;;;;;5045602;28;20387;-71
2022/06/27 02:48:30;;;;;;;4.13;2.50;;;19.00;69.20;;;;;;5043792;28;20512;-70
2022/06/27 02:50:58;;;;;;;7.68;4.22;;;18.90;69.40;;;;;;5046911;28;20104;-69
2022/06/27 02:53:28;;;;;;;7.57;4.20;;;18.90;70.10;;;;;;5049729;28;20054;-70
2022/06/27 02:55:55;;;;;;;4.82;3.58;;;18.90;70.10;;;;;;5045702;28;20024;-70
2022/06/27 02:58:44;;;;;;;4.00;2.85;;;18.80;70.30;;;;;;5043701;28;20029;-69
2022/06/27 03:01:10;;;;;;;4.25;3.10;;;18.80;70.60;;;;;;5045164;28;20017;-70
2022/06/27 03:03:38;;;;;;;4.15;2.90;;;18.70;70.90;;;;;;5050670;28;20028;-69
2022/06/27 03:06:06;;;;;;;4.20;2.78;;;18.70;71.00;;;;;;5048255;28;20095;-70
2022/06/27 03:08:42;;;;;;;4.47;3.10;;;18.80;71.70;;;;;;5047445;28;20037;-69
2022/06/27 03:11:12;;;;;;;4.40;3.00;;;18.80;71.20;;;;;;5048408;28;20028;-70
2022/06/27 03:13:38;;;;;;;6.22;4.30;;;18.70;71.30;;;;;;5050600;28;20467;-69
2022/06/27 03:16:04;;;;;;;4.65;3.13;;;18.80;71.80;;;;;;5048870;28;20056;-68
2022/06/27 03:18:30;;;;;;;3.83;3.05;;;18.70;71.70;;;;;;5047686;28;20025;-68
2022/06/27 03:20:55;;;;;;;5.32;3.60;;;18.80;71.90;;;;;;5048938;28;20437;-68
2022/06/27 03:23:21;;;;;;;4.65;3.30;;;18.70;72.10;;;;;;5049641;28;20024;-71
2022/06/27 03:25:47;;;;;;;5.80;3.10;;;18.70;72.10;;;;;;5041595;28;20026;-69
2022/06/27 03:28:13;;;;;;;5.70;3.75;;;18.80;72.10;;;;;;5048130;28;20635;-69
2022/06/27 03:30:39;;;;;;;5.43;3.72;;;18.80;72.10;;;;;;5042579;28;20025;-67
2022/06/27 03:33:05;;;;;;;3.88;3.47;;;18.90;72.10;;;;;;5050164;28;20024;-68
2022/06/27 03:35:31;;;;;;;5.55;3.90;;;18.80;72.40;;;;;;5047369;28;20025;-69
2022/06/27 03:37:56;;;;;;;6.18;4.00;;;18.90;72.30;;;;;;5045782;28;20391;-69
2022/06/27 03:40:22;;;;;;;6.43;3.78;;;18.90;72.40;;;;;;5043014;28;20408;-70
2022/06/27 03:42:48;;;;;;;4.85;3.45;;;18.90;72.40;;;;;;5048399;28;20110;-69
2022/06/27 03:45:14;;;;;;;5.13;3.28;;;18.90;72.30;;;;;;5046832;28;20047;-69
2022/06/27 03:47:50;;;;;;;4.78;4.00;;;18.90;72.40;;;;;;5045046;28;20459;-68
2022/06/27 03:50:19;;;;;;;5.03;3.60;;;19.00;72.50;;;;;;5046634;28;20059;-70
2022/06/27 03:52:44;;;;;;;6.75;4.00;;;19.00;72.40;;;;;;5047680;28;20025;-70
2022/06/27 03:55:11;;;;;;;4.30;3.60;;;19.00;72.40;;;;;;5048419;28;20033;-70
2022/06/27 03:57:38;;;;;;;3.85;3.33;;;19.00;72.40;;;;;;5045772;28;20434;-71
2022/06/27 04:00:08;;;;;;;6.05;3.70;;;19.00;72.30;;;;;;5048056;28;20033;-71
2022/06/27 04:02:34;;;;;;;4.57;3.30;;;19.10;72.20;;;;;;5046019;28;20079;-70
2022/06/27 04:05:00;;;;;;;4.18;3.45;;;19.10;72.10;;;;;;5049380;28;20108;-70
2022/06/27 04:07:26;;;;;;;4.63;3.50;;;19.20;72.10;;;;;;5043322;28;20116;-69
2022/06/27 04:09:52;;;;;;;5.43;3.88;;;19.20;72.00;;;;;;5049370;28;20018;-70
2022/06/27 04:12:17;;;;;;;4.55;3.40;;;19.20;72.00;;;;;;5046745;28;20025;-69
2022/06/27 04:14:43;;;;;;;4.40;2.97;;;19.30;71.90;;;;;;5049665;28;20502;-70
2022/06/27 04:17:08;;;;;;;4.10;2.88;;;19.20;71.90;;;;;;5045660;28;20629;-69
2022/06/27 04:19:34;;;;;;;3.72;2.80;;;19.30;71.90;;;;;;5048851;28;20462;-69
2022/06/27 04:21:59;;;;;;;3.47;2.42;;;19.30;71.90;;;;;;5046622;28;20040;-70
2022/06/27 04:24:25;;;;;;;2.40;2.17;;;19.30;72.60;;;;;;5049749;28;20017;-69
2022/06/27 04:26:50;;;;;;;2.95;2.17;;;19.30;72.10;;;;;;5042714;28;20033;-69
2022/06/27 04:29:16;;;;;;;2.67;2.40;;;19.30;72.00;;;;;;5049678;28;20017;-69
2022/06/27 04:31:42;;;;;;;2.97;2.25;;;19.30;72.00;;;;;;5039107;28;20026;-69
2022/06/27 04:34:07;;;;;;;3.70;2.58;;;19.30;72.10;;;;;;5043938;28;20017;-70
2022/06/27 04:36:33;;;;;;;4.60;2.58;;;19.20;72.40;;;;;;5039845;28;20333;-68
2022/06/27 04:38:58;;;;;;;4.70;2.60;;;19.20;72.50;;;;;;5047940;28;20087;-68
2022/06/27 04:41:28;;;;;;;3.35;2.60;;;19.30;72.50;;;;;;5041896;28;20026;-69
2022/06/27 04:43:54;;;;;;;3.22;2.20;;;19.30;72.50;;;;;;5048138;28;20114;-68
2022/06/27 04:46:20;;;;;;;2.97;2.35;;;19.30;72.40;;;;;;5045753;28;20025;-69
2022/06/27 04:48:46;;;;;;;3.90;2.95;;;19.30;72.40;;;;;;5048585;28;20028;-69
2022/06/27 04:51:13;;;;;;;3.65;2.80;;;19.40;72.20;;;;;;5043953;28;20018;-67
2022/06/27 04:53:40;;;;;;;3.42;2.60;;;19.50;72.20;;;;;;5040107;28;20491;-69
2022/06/27 04:56:06;;;;;;;4.32;2.78;;;19.50;72.10;;;;;;5047355;28;20120;-68
2022/06/27 04:58:32;;;;;;;2.78;2.42;;;19.50;72.10;;;;;;5045401;28;20043;-68
2022/06/27 05:00:58;;;;;;;3.33;2.72;;;19.50;72.20;;;;;;5045571;28;20100;-69
2022/06/27 05:03:23;;;;;;;3.92;2.35;;;19.60;72.40;;;;;;5047877;28;20035;-70
2022/06/27 05:05:50;;;;;;;3.15;2.30;;;19.60;72.30;;;;;;5048352;28;20538;-69
2022/06/27 05:08:16;;;;;;;3.50;2.88;;;19.60;72.20;;;;;;5042255;28;20028;-69
2022/06/27 05:10:42;;;;;;;4.15;2.95;;;19.60;72.20;;;;;;5049259;28;20025;-68
2022/06/27 05:13:08;;;;;;;3.50;2.58;;;19.60;72.20;;;;;;5044088;28;20388;-70
2022/06/27 05:15:33;;;;;;;3.75;3.00;;;19.60;72.20;;;;;;5049406;28;20021;-69
2022/06/27 05:17:59;;;;;;;3.05;2.75;;;19.60;72.10;;;;;;5046702;28;20564;-70
2022/06/27 05:20:25;;;;;;;3.58;2.80;;;19.60;72.00;;;;;;5044782;28;20033;-70
2022/06/27 05:22:50;;;;;;;3.67;3.05;;;19.60;72.00;;;;;;5047411;28;20032;-69
2022/06/27 05:25:16;;;;;;;4.10;3.10;;;19.60;72.00;;;;;;5052664;28;20368;-68
2022/06/27 05:27:42;;;;;;;3.67;2.80;;;19.70;71.90;;;;;;5050540;28;20419;-69
2022/06/27 05:30:08;;;;;;;3.15;2.60;;;19.70;71.80;;;;;;5052454;28;20025;-69
2022/06/27 05:32:33;;;;;;;4.35;3.47;;;19.80;71.80;;;;;;5050049;28;20029;-68
2022/06/27 05:34:59;;;;;;;3.90;2.83;;;19.80;71.80;;;;;;5052575;28;20458;-68
2022/06/27 05:37:24;;;;;;;4.75;3.15;;;19.80;71.80;;;;;;5049157;28;20434;-68
2022/06/27 05:39:50;;;;;;;4.72;3.00;;;19.80;71.70;;;;;;5044316;28;20087;-69
2022/06/27 05:42:17;;;;;;;4.07;2.95;;;19.80;71.70;;;;;;5046710;28;20021;-68
2022/06/27 05:44:43;;;;;;;2.85;2.53;;;19.80;71.70;;;;;;5049889;28;20091;-69
2022/06/27 05:47:09;;;;;;;3.92;3.10;;;19.80;71.70;;;;;;5040034;28;20228;-69
2022/06/27 05:49:37;;;;;;;5.85;3.17;;;19.80;71.80;;;;;;5041533;28;20017;-68
2022/06/27 05:52:03;;;;;;;4.43;3.50;;;19.80;71.80;;;;;;5048166;28;20013;-67
2022/06/27 05:54:29;;;;;;;4.95;3.85;;;19.80;71.80;;;;;;5050043;28;20025;-66
2022/06/27 05:56:55;;;;;;;4.22;3.05;;;19.80;71.80;;;;;;5046767;28;20076;-69
2022/06/27 05:59:22;;;;;;;4.30;3.45;;;19.80;72.40;;;;;;5038377;28;20118;-67
2022/06/27 06:01:49;;;;;;;4.28;3.58;;;19.80;71.70;;;;;;5041077;28;20029;-67
2022/06/27 06:04:16;;;;;;;4.57;3.17;;;19.80;71.80;;;;;;5041773;28;20029;-68
2022/06/27 06:06:43;;;;;;;4.10;3.22;;;19.80;71.80;;;;;;5049517;28;20028;-68
2022/06/27 06:09:10;;;;;;;5.32;3.58;;;19.90;71.80;;;;;;5041492;28;20073;-69
2022/06/27 06:11:36;;;;;;;4.95;3.75;;;20.00;71.80;;;;;;5041577;28;20063;-69
2022/06/27 06:14:03;;;;;;;5.97;4.07;;;20.00;71.50;;;;;;5042154;28;20453;-68
2022/06/27 06:16:29;;;;;;;5.22;3.75;;;20.10;71.40;;;;;;5050212;28;20419;-69
2022/06/27 06:18:56;;;;;;;4.38;3.97;;;20.20;71.20;;;;;;5047480;28;20044;-68
2022/06/27 06:21:23;;;;;;;6.05;4.35;;;20.30;71.00;;;;;;5041465;28;20053;-69
2022/06/27 06:23:51;;;;;;;4.45;3.83;;;20.40;70.90;;;;;;5037896;28;20085;-69
2022/06/27 06:26:19;;;;;;;4.63;4.13;;;20.40;70.70;;;;;;5046947;28;20074;-69
2022/06/27 06:28:45;;;;;;;5.32;4.22;;;20.50;70.60;;;;;;5040215;28;20021;-69
2022/06/27 06:31:15;;;;;;;4.78;3.90;;;20.50;70.60;;;;;;5043351;28;20095;-69
2022/06/27 06:33:41;;;;;;;4.65;3.95;;;20.50;70.50;;;;;;5040548;28;20063;-71
2022/06/27 06:36:07;;;;;;;5.43;3.97;;;20.60;70.40;;;;;;5044387;28;20060;-70
2022/06/27 06:38:33;;;;;;;4.82;3.70;;;20.50;70.30;;;;;;5040997;28;20026;-69
2022/06/27 06:40:58;;;;;;;5.18;3.75;;;20.50;70.40;;;;;;5045122;28;20096;-70
2022/06/27 06:43:24;;;;;;;5.43;3.50;;;20.50;70.50;;;;;;5042610;28;20206;-69
2022/06/27 06:45:50;;;;;;;4.20;3.50;;;20.50;70.70;;;;;;5041548;28;20048;-69
2022/06/27 06:48:17;;;;;;;4.00;3.25;;;20.40;70.80;;;;;;5036056;28;20500;-68
2022/06/27 06:50:43;;;;;;;4.07;3.50;;;20.40;70.90;;;;;;5040004;28;20573;-69
2022/06/27 06:53:09;;;;;;;4.03;3.13;;;20.40;71.00;;;;;;5040717;28;20026;-69
2022/06/27 06:55:35;;;;;;;4.07;3.58;;;20.40;71.10;;;;;;5041913;28;20083;-69
2022/06/27 06:58:00;;;;;;;6.10;3.35;;;20.40;71.10;;;;;;5040587;28;20021;-69
2022/06/27 07:00:26;;;;;;;4.57;3.33;;;20.40;71.20;;;;;;5035854;28;20029;-69
2022/06/27 07:02:52;;;;;;;4.38;3.13;;;20.40;71.20;;;;;;5038933;28;20059;-69
2022/06/27 07:05:19;;;;;;;4.90;3.40;;;20.40;71.90;;;;;;5039126;28;20110;-68
2022/06/27 07:07:47;;;;;;;4.10;3.60;;;20.40;71.30;;;;;;5041516;28;20116;-69
2022/06/27 07:10:13;;;;;;;3.70;3.25;;;20.40;71.30;;;;;;5038861;28;20013;-68
2022/06/27 07:12:40;;;;;;;4.03;3.55;;;20.40;71.30;;;;;;5040197;28;20021;-69
2022/06/27 07:15:09;;;;;;;4.25;3.58;;;20.40;71.40;;;;;;5036455;28;20033;-67
2022/06/27 07:17:49;;;;;;;4.43;3.17;;;20.40;71.30;;;;;;5040440;28;20048;-69
2022/06/27 07:20:20;;;;;;;4.15;3.55;;;20.50;71.30;;;;;;5043026;28;20030;-70
2022/06/27 07:22:48;;;;;;;5.97;4.55;;;20.50;71.40;;;;;;5039498;28;20047;-70
2022/06/27 07:25:13;;;;;;;5.93;4.15;;;20.40;71.30;;;;;;5038575;28;20032;-68
2022/06/27 07:27:40;;;;;;;5.60;4.00;;;20.40;71.40;;;;;;5042139;28;20033;-69
2022/06/27 07:30:10;;;;;;;6.10;4.22;;;20.40;71.50;;;;;;5039393;28;20041;-68
2022/06/27 07:32:39;;;;;;;5.57;4.30;;;20.40;71.50;;;;;;5043321;28;20029;-69
2022/06/27 07:35:05;;;;;;;5.75;4.07;;;20.50;71.50;;;;;;5039607;28;20498;-68
2022/06/27 07:37:33;;;;;;;4.55;3.67;;;20.50;71.50;;;;;;5034493;28;20443;-70
2022/06/27 07:39:59;;;;;;;5.07;3.92;;;20.50;71.60;;;;;;5040598;28;20522;-70
2022/06/27 07:42:24;;;;;;;5.43;3.90;;;20.40;71.80;;;;;;5040236;28;20029;-69
2022/06/27 07:44:50;;;;;;;4.13;3.35;;;20.50;71.80;;;;;;5040644;28;20037;-70
2022/06/27 07:47:16;;;;;;;4.50;3.80;;;20.40;71.80;;;;;;5048020;28;20031;-68
2022/06/27 07:49:42;;;;;;;5.88;4.28;;;20.50;71.80;;;;;;5041241;28;20026;-69
2022/06/27 07:52:07;;;;;;;3.25;2.70;;;20.50;71.70;;;;;;5040776;28;20481;-68
2022/06/27 07:54:33;;;;;;;5.82;3.67;;;20.50;71.70;;;;;;5041437;28;20082;-67
2022/06/27 07:57:00;;;;;;;5.63;4.00;;;20.40;71.90;;;;;;5037610;28;20680;-68
2022/06/27 07:59:26;;;;;;;5.45;4.07;;;20.30;72.20;;;;;;5044098;28;20557;-69
2022/06/27 08:01:52;;;;;;;5.57;4.00;;;20.30;72.50;;;;;;5038638;28;20029;-67
2022/06/27 08:04:18;;;;;;;3.70;3.30;;;20.20;72.70;;;;;;5050090;28;20032;-68
2022/06/27 08:06:46;;;;;;;4.00;3.55;;;20.40;72.70;;;;;;5041852;28;21636;-69
2022/06/27 08:09:12;;;;;;;5.18;3.72;;;20.50;72.40;;;;;;5049073;28;20574;-69
2022/06/27 08:11:40;;;;;;;3.83;3.30;;;20.70;72.00;;;;;;5036985;28;20112;-69
2022/06/27 08:14:12;;;;;;;4.20;3.35;;;20.70;71.70;;;;;;5050339;28;20078;-68
2022/06/27 08:16:39;;;;;;;3.95;3.38;;;20.80;71.50;;;;;;5037556;28;20316;-67
2022/06/27 08:19:06;;;;;;;4.63;3.17;;;21.00;71.20;;;;;;5042713;28;20025;-68
2022/06/27 08:21:33;;;;;;;4.85;3.97;;;21.10;70.80;;;;;;5042503;28;20037;-69
2022/06/27 08:24:03;;;;;;;3.50;3.17;;;21.20;70.60;;;;;;5046415;28;20029;-69
2022/06/27 08:26:30;;;;;;;3.33;2.72;;;21.20;70.30;;;;;;5031560;28;20057;-68
2022/06/27 08:28:58;;;;;;;3.47;3.10;;;21.30;70.00;;;;;;5048369;28;20501;-69
2022/06/27 08:31:25;;;;;;;5.63;4.75;;;21.40;69.70;;;;;;5039374;28;20109;-70
2022/06/27 08:33:52;;;;;;;5.57;3.88;;;21.40;69.30;;;;;;5044619;28;20549;-68
2022/06/27 08:36:19;;;;;;;5.72;4.53;;;21.30;69.30;;;;;;5042234;28;20121;-69
2022/06/27 08:38:52;;;;;;;6.10;4.38;;;21.20;69.50;;;;;;5042434;28;20033;-68
2022/06/27 08:41:20;;;;;;;7.47;4.18;;;21.10;69.30;;;;;;5042192;28;20028;-68
2022/06/27 08:43:48;;;;;;;5.20;3.70;;;21.10;69.10;;;;;;5044044;28;20018;-69
2022/06/27 08:46:17;;;;;;;4.80;3.40;;;21.20;68.40;;;;;;5046350;28;20129;-69
2022/06/27 08:48:45;;;;;;;3.53;2.50;;;21.20;67.70;;;;;;5039978;28;20030;-69
2022/06/27 08:51:12;;;;;;;4.28;2.97;;;21.40;67.70;;;;;;5040804;28;20021;-69
2022/06/27 08:53:38;;;;;;;5.35;2.97;;;21.50;67.20;;;;;;5044797;28;20067;-68
2022/06/27 08:56:06;;;;;;;4.43;2.78;;;21.70;66.80;;;;;;5043270;28;20602;-68
2022/06/27 08:58:31;;;;;;;3.58;2.80;;;21.80;66.50;;;;;;5045068;28;20021;-69
2022/06/27 09:00:57;;;;;;;2.90;2.60;;;21.90;65.70;;;;;;5041663;28;20604;-69
2022/06/27 09:03:23;;;;;;;3.33;2.75;;;22.10;65.30;;;;;;5047073;28;20036;-69
2022/06/27 09:06:10;;;;;;;4.15;2.92;;;22.20;65.00;;;;;;5045133;28;20032;-68
2022/06/27 09:08:55;;;;;;;4.00;2.75;;;22.40;64.60;;;;;;5043183;28;20435;-68
2022/06/27 09:11:32;;;;;;;3.75;2.60;;;22.50;63.90;;;;;;5040774;28;20017;-67
2022/06/27 09:13:59;;;;;;;3.17;2.25;;;22.60;63.60;;;;;;5042947;28;20025;-69
2022/06/27 09:16:25;;;;;;;5.43;3.20;;;22.60;63.20;;;;;;5043452;28;20051;-68
2022/06/27 09:18:51;;;;;;;3.20;2.35;;;22.60;62.90;;;;;;5043512;28;20037;-67
2022/06/27 09:21:17;;;;;;;4.65;2.70;;;22.60;62.90;;;;;;5049640;28;20025;-68
2022/06/27 09:24:03;;;;;;;3.72;2.30;;;22.60;62.80;;;;;;5039948;28;20177;-69
2022/06/27 09:26:36;;;;;;;3.50;2.05;;;22.60;62.20;;;;;;5034789;28;20037;-68
2022/06/27 09:29:14;;;;;;;2.42;1.85;;;22.60;62.00;;;;;;5049161;28;20021;-67
2022/06/27 09:31:45;;;;;;;2.00;1.80;;;22.70;61.80;;;;;;5045020;28;20108;-68
2022/06/27 09:34:24;;;;;;;3.20;2.30;;;22.90;61.60;;;;;;5041244;28;20021;-68
2022/06/27 09:36:59;;;;;;;3.03;2.20;;;23.00;61.30;;;;;;5038126;28;20072;-68
2022/06/27 09:39:35;;;;;;;2.92;1.90;;;23.00;61.00;;;;;;5046925;28;20040;-68
2022/06/27 09:42:04;;;;;;;4.68;2.20;;;23.10;61.10;;;;;;5039604;28;20032;-68
2022/06/27 09:44:33;;;;;;;3.78;2.35;;;23.10;60.60;;;;;;5048925;28;20036;-67
2022/06/27 09:47:02;;;;;;;3.22;2.20;;;23.10;60.30;;;;;;5039770;28;20499;-68
2022/06/27 09:49:31;;;;;;;5.45;3.88;;;23.10;60.30;;;;;;5049842;28;20147;-68
2022/06/27 09:51:58;;;;;;;3.28;2.65;;;23.10;59.80;;;;;;5046510;28;20025;-67
2022/06/27 09:54:24;;;;;;;3.50;2.47;;;23.00;60.10;;;;;;5050443;28;20024;-68
2022/06/27 09:56:51;;;;;;;3.15;2.22;;;23.10;59.90;;;;;;5045680;28;21602;-68
2022/06/27 09:59:18;;;;;;;4.20;2.40;;;23.00;59.90;;;;;;5051354;28;20781;-67
2022/06/27 10:01:44;;;;;;;5.70;2.95;;;23.00;59.70;;;;;;5047269;28;20028;-68
2022/06/27 10:04:10;;;;;;;2.72;2.13;;;22.90;59.40;;;;;;5042760;28;20026;-68
2022/06/27 10:06:40;;;;;;;2.72;2.42;;;22.90;59.70;;;;;;5046863;28;20025;-68
2022/06/27 10:09:08;;;;;;;3.15;2.22;;;22.90;59.60;;;;;;5037303;28;20032;-68
2022/06/27 10:11:35;;;;;;;4.85;2.50;;;22.90;59.70;;;;;;5043201;28;20135;-67
2022/06/27 10:14:11;;;;;;;3.90;2.35;;;23.00;59.70;;;;;;5049685;28;20027;-67
2022/06/27 10:16:56;;;;;;;2.97;2.03;;;23.10;59.60;;;;;;5046399;28;20600;-68
2022/06/27 10:19:24;;;;;;;3.13;2.30;;;23.20;59.50;;;;;;5040726;28;20053;-67
2022/06/27 10:21:51;;;;;;;3.33;2.20;;;23.30;59.30;;;;;;5045834;28;20033;-67
2022/06/27 10:24:26;;;;;;;4.05;2.25;;;23.30;59.20;;;;;;5043999;28;20568;-67
2022/06/27 10:26:53;;;;;;;2.40;1.92;;;23.40;59.00;;;;;;5038925;28;20563;-68
2022/06/27 10:29:33;;;;;;;3.55;2.17;;;23.40;58.80;;;;;;5039035;28;20013;-67
2022/06/27 10:32:02;;;;;;;10.80;9.63;;;23.50;59.30;;;;;;5046174;28;20029;-67
2022/06/27 10:34:40;;;;;;;5.93;5.07;;;23.50;58.80;;;;;;5047569;28;20032;-67
2022/06/27 10:37:26;;;;;;;3.67;3.17;;;23.50;58.70;;;;;;5030071;28;20044;-67
2022/06/27 10:39:53;;;;;;;3.42;2.35;;;23.60;58.60;;;;;;5046521;28;21307;-67
2022/06/27 10:42:52;;;;;;;3.95;2.30;;;23.70;58.30;;;;;;5044952;28;20044;-67
2022/06/27 10:45:21;;;;;;;4.75;2.17;;;23.80;58.00;;;;;;5048404;28;20103;-67
2022/06/27 10:47:46;;;;;;;3.75;2.72;;;24.00;57.70;;;;;;5041924;28;20040;-67
2022/06/27 10:50:14;;;;;;;3.65;2.00;;;23.90;56.50;;;;;;5046892;28;20541;-67
2022/06/27 10:52:39;;;;;;;3.67;2.13;;;23.90;56.80;;;;;;5044602;28;20055;-67
2022/06/27 10:55:25;;;;;;;2.85;2.20;;;24.00;56.70;;;;;;5039216;28;20025;-68
2022/06/27 10:57:52;;;;;;;3.63;2.15;;;24.20;56.30;;;;;;5038393;28;20092;-68
2022/06/27 11:00:41;;;;;;;3.45;2.15;;;24.20;55.90;;;;;;5047126;28;20549;-68
2022/06/27 11:03:09;;;;;;;3.47;1.88;;;24.20;55.60;;;;;;5043293;28;20029;-68
2022/06/27 11:06:04;;;;;;;3.70;2.00;;;24.30;55.70;;;;;;5050866;28;20029;-68
2022/06/27 11:08:35;;;;;;;2.83;1.70;;;24.40;55.30;;;;;;5045746;28;20036;-69
2022/06/27 11:11:01;;;;;;;3.83;1.60;;;24.40;54.80;;;;;;5041152;28;20013;-68
2022/06/27 11:13:44;;;;;;;4.10;2.10;;;24.50;54.80;;;;;;5044584;28;20063;-68
2022/06/27 11:16:32;;;;;;;2.97;1.92;;;24.40;53.20;;;;;;5043041;28;20052;-68
2022/06/27 11:18:58;;;;;;;3.78;1.90;;;24.30;53.40;;;;;;5037358;28;20017;-68
2022/06/27 11:21:32;;;;;;;3.25;1.70;;;24.30;53.70;;;;;;5040585;28;20028;-68
2022/06/27 11:24:03;;;;;;;1.77;1.60;;;24.50;54.00;;;;;;5041217;28;20025;-69
2022/06/27 11:26:48;;;;;;;2.20;1.60;;;24.60;54.00;;;;;;5040879;28;20029;-70
2022/06/27 11:32:12;;;;;;;1.67;1.25;;;24.80;53.10;;;;;;5042514;28;20055;-70
2022/06/27 11:34:42;;;;;;;2.75;1.40;;;24.80;53.20;;;;;;5042958;28;20023;-68
2022/06/27 11:37:10;;;;;;;2.00;1.60;;;24.80;53.10;;;;;;5042652;28;20029;-68
2022/06/27 11:39:36;;;;;;;2.60;1.33;;;24.80;52.80;;;;;;5042175;28;20070;-69
2022/06/27 11:42:09;;;;;;;2.78;1.92;;;24.80;52.90;;;;;;5039845;28;20419;-69
2022/06/27 11:44:36;;;;;;;3.35;1.65;;;24.70;52.70;;;;;;5037479;28;20041;-69
2022/06/27 11:47:09;;;;;;;3.67;1.90;;;24.60;53.00;;;;;;5038718;28;20021;-69
2022/06/27 11:49:36;;;;;;;2.47;1.85;;;24.60;52.80;;;;;;5040800;28;20053;-69
2022/06/27 11:52:06;;;;;;;4.13;1.90;;;24.50;53.00;;;;;;5041094;28;20026;-68
2022/06/27 11:54:40;;;;;;;2.88;1.73;;;24.40;53.20;;;;;;5040759;28;20021;-70
2022/06/27 11:57:32;;;;;;;2.83;2.00;;;24.30;53.20;;;;;;5037269;28;20026;-67
2022/06/27 11:59:59;;;;;;;3.38;1.90;;;24.30;53.10;;;;;;5039103;28;20437;-68
2022/06/27 12:02:36;;;;;;;3.95;2.10;;;24.20;53.30;;;;;;5040232;28;20029;-67
2022/06/27 12:05:09;;;;;;;3.85;1.98;;;24.20;53.60;;;;;;5038033;28;20024;-68
2022/06/27 12:08:12;;;;;;;2.28;1.80;;;24.20;53.50;;;;;;5041844;28;20028;-68
2022/06/27 12:13:36;;;;;;;3.17;1.83;;;24.20;53.60;;;;;;5038813;28;20545;-69
2022/06/27 12:16:03;;;;;;;3.30;1.73;;;24.20;53.20;;;;;;5036538;28;20025;-68
2022/06/27 12:18:37;;;;;;;2.85;1.63;;;24.20;53.00;;;;;;5038273;28;20119;-67
2022/06/27 12:21:03;;;;;;;2.45;1.70;;;24.20;52.80;;;;;;5041238;28;20029;-67
2022/06/27 12:23:29;;;;;;;3.47;1.67;;;24.40;52.50;;;;;;5040779;28;20102;-67
2022/06/27 12:25:55;;;;;;;3.53;1.95;;;24.60;52.40;;;;;;5040191;28;20518;-68
2022/06/27 12:28:21;;;;;;;2.20;1.88;;;24.80;52.20;;;;;;5036304;28;20022;-68
2022/06/27 12:30:46;;;;;;;2.28;1.70;;;24.90;52.00;;;;;;5039472;28;20104;-69
2022/06/27 12:33:12;;;;;;;3.88;2.10;;;24.90;51.90;;;;;;5043460;28;20013;-69
2022/06/27 12:35:37;;;;;;;3.83;2.45;;;24.80;51.80;;;;;;5045548;28;20032;-69
2022/06/27 12:38:03;;;;;;;4.57;2.20;;;24.80;52.00;;;;;;5041503;28;20024;-69
2022/06/27 12:40:29;;;;;;;4.15;2.20;;;24.80;52.00;;;;;;5042979;28;20025;-69
2022/06/27 12:42:55;;;;;;;4.10;2.75;;;24.80;51.90;;;;;;5040673;28;20024;-69
2022/06/27 12:45:21;;;;;;;2.50;1.92;;;24.80;51.90;;;;;;5041389;28;20105;-69
2022/06/27 12:47:47;;;;;;;3.17;1.90;;;24.80;52.10;;;;;;5042073;28;20028;-68
2022/06/27 12:50:13;;;;;;;2.75;1.65;;;24.90;52.20;;;;;;5051045;28;20029;-69
2022/06/27 12:52:39;;;;;;;3.13;2.17;;;25.00;52.10;;;;;;5043909;28;20024;-69
2022/06/27 12:55:05;;;;;;;3.28;2.47;;;25.00;51.60;;;;;;5046864;28;20475;-69
2022/06/27 12:57:31;;;;;;;3.50;2.05;;;24.80;51.40;;;;;;5050213;28;20116;-68
2022/06/27 12:59:56;;;;;;;2.88;1.70;;;24.60;51.80;;;;;;5053054;28;20447;-68